createdAt,value
2019-02-28T00:00:10.365Z,1004.54
2019-02-28T00:01:11.697Z,1004.55
2019-02-28T00:02:10.320Z,1004.58
2019-02-28T00:03:10.311Z,1004.54
2019-02-28T00:04:10.317Z,1004.53
2019-02-28T00:05:10.287Z,1004.51
2019-02-28T00:06:12.549Z,1004.51
2019-02-28T00:07:10.277Z,1004.47
2019-02-28T00:08:10.287Z,1004.52
2019-02-28T00:09:10.241Z,1004.49
2019-02-28T00:10:10.283Z,1004.49
2019-02-28T00:11:10.239Z,1004.50
2019-02-28T00:12:13.541Z,1004.50
2019-02-28T00:13:10.256Z,1004.47
2019-02-28T00:14:10.264Z,1004.49
2019-02-28T00:15:10.179Z,1004.50
2019-02-28T00:16:10.190Z,1004.47
2019-02-28T00:17:10.183Z,1004.45
2019-02-28T00:18:10.173Z,1004.47
2019-02-28T00:19:10.138Z,1004.46
2019-02-28T00:20:10.137Z,1004.48
2019-02-28T00:21:10.125Z,1004.47
2019-02-28T00:22:11.330Z,1004.47
2019-02-28T00:23:10.111Z,1004.44
2019-02-28T00:24:10.077Z,1004.47
2019-02-28T00:25:10.093Z,1004.38
2019-02-28T00:26:11.643Z,1004.42
2019-02-28T00:27:10.062Z,1004.42
2019-02-28T00:28:10.031Z,1004.44
2019-02-28T00:29:10.035Z,1004.31
2019-02-28T00:30:10.043Z,1004.42
2019-02-28T00:31:14.384Z,1004.39
2019-02-28T00:32:11.005Z,1004.40
2019-02-28T00:33:10.004Z,1004.38
2019-02-28T00:34:09.972Z,1004.37
2019-02-28T00:35:13.116Z,1004.34
2019-02-28T00:36:09.977Z,1004.31
2019-02-28T00:37:09.961Z,1004.33
2019-02-28T00:38:09.939Z,1004.33
2019-02-28T00:39:09.931Z,1004.32
2019-02-28T00:40:09.970Z,1004.31
2019-02-28T00:41:10.243Z,1004.29
2019-02-28T00:42:09.902Z,1004.31
2019-02-28T00:43:09.893Z,1004.24
2019-02-28T00:44:09.868Z,1004.23
2019-02-28T00:45:09.865Z,1004.22
2019-02-28T00:46:10.804Z,1004.17
2019-02-28T00:47:09.848Z,1004.21
2019-02-28T00:48:09.821Z,1004.17
2019-02-28T00:49:09.833Z,1004.17
2019-02-28T00:50:09.795Z,1004.19
2019-02-28T00:51:09.814Z,1004.15
2019-02-28T00:52:09.786Z,1004.13
2019-02-28T00:53:09.781Z,1004.15
2019-02-28T00:54:09.790Z,1004.12
2019-02-28T00:55:09.745Z,1004.11
2019-02-28T00:56:09.755Z,1004.11
2019-02-28T00:57:09.752Z,1004.08
2019-02-28T00:58:09.709Z,1004.13
2019-02-28T00:59:09.704Z,1004.08
2019-02-28T01:00:09.701Z,1004.08
2019-02-28T01:01:11.597Z,1004.08
2019-02-28T01:02:09.672Z,1004.03
2019-02-28T01:03:09.668Z,1004.07
2019-02-28T01:04:09.654Z,1004.04
2019-02-28T01:05:09.663Z,1004.03
2019-02-28T01:06:10.501Z,1004.04
2019-02-28T01:07:09.611Z,1004.01
2019-02-28T01:08:09.603Z,1004.00
2019-02-28T01:09:09.590Z,1003.96
2019-02-28T01:10:09.610Z,1003.99
2019-02-28T01:11:10.341Z,1004.01
2019-02-28T01:12:09.582Z,1003.97
2019-02-28T01:13:09.545Z,1003.99
2019-02-28T01:14:09.536Z,1003.97
2019-02-28T01:15:10.060Z,1003.99
2019-02-28T01:16:09.549Z,1003.94
2019-02-28T01:17:09.518Z,1003.93
2019-02-28T01:18:09.510Z,1003.90
2019-02-28T01:19:10.185Z,1003.93
2019-02-28T01:20:14.982Z,1003.92
2019-02-28T01:21:10.455Z,1003.92
2019-02-28T01:22:09.490Z,1003.87
2019-02-28T01:23:09.463Z,1003.86
2019-02-28T01:24:09.430Z,1003.88
2019-02-28T01:25:09.458Z,1003.82
2019-02-28T01:26:11.739Z,1003.81
2019-02-28T01:27:09.396Z,1003.80
2019-02-28T01:28:09.399Z,1003.79
2019-02-28T01:29:09.388Z,1003.83
2019-02-28T01:30:09.371Z,1003.76
2019-02-28T01:31:11.655Z,1003.74
2019-02-28T01:32:09.336Z,1003.75
2019-02-28T01:33:09.346Z,1003.73
2019-02-28T01:34:09.333Z,1003.74
2019-02-28T01:35:09.313Z,1003.73
2019-02-28T01:36:12.246Z,1003.70
2019-02-28T01:37:10.287Z,1003.71
2019-02-28T01:38:09.301Z,1003.69
2019-02-28T01:39:09.272Z,1003.70
2019-02-28T01:40:09.267Z,1003.67
2019-02-28T01:41:11.205Z,1003.67
2019-02-28T01:42:09.239Z,1003.65
2019-02-28T01:43:09.228Z,1003.66
2019-02-28T01:44:09.220Z,1003.70
2019-02-28T01:45:09.936Z,1003.63
2019-02-28T01:46:09.208Z,1003.67
2019-02-28T01:47:09.216Z,1003.61
2019-02-28T01:48:09.182Z,1003.62
2019-02-28T01:49:09.168Z,1003.56
2019-02-28T01:50:09.158Z,1003.59
2019-02-28T01:51:09.140Z,1003.61
2019-02-28T01:52:10.164Z,1003.59
2019-02-28T01:53:09.126Z,1003.55
2019-02-28T01:54:09.097Z,1003.54
2019-02-28T01:55:09.095Z,1003.54
2019-02-28T01:56:09.108Z,1003.52
2019-02-28T01:57:10.039Z,1003.49
2019-02-28T01:58:09.067Z,1003.50
2019-02-28T01:59:09.043Z,1003.53
2019-02-28T02:00:09.036Z,1003.52
2019-02-28T02:01:09.026Z,1003.47
2019-02-28T02:02:09.045Z,1003.52
2019-02-28T02:03:09.492Z,1003.55
2019-02-28T02:04:08.992Z,1003.49
2019-02-28T02:05:08.985Z,1003.44
2019-02-28T02:06:08.971Z,1003.45
2019-02-28T02:07:08.972Z,1003.51
2019-02-28T02:08:08.967Z,1003.40
2019-02-28T02:09:11.029Z,1003.43
2019-02-28T02:10:08.941Z,1003.41
2019-02-28T02:11:08.940Z,1003.38
2019-02-28T02:12:08.961Z,1003.41
2019-02-28T02:13:08.887Z,1003.43
2019-02-28T02:14:11.092Z,1003.38
2019-02-28T02:15:08.875Z,1003.39
2019-02-28T02:16:08.865Z,1003.34
2019-02-28T02:17:08.879Z,1003.41
2019-02-28T02:18:09.485Z,1003.30
2019-02-28T02:19:08.846Z,1003.30
2019-02-28T02:20:08.832Z,1003.31
2019-02-28T02:21:08.823Z,1003.30
2019-02-28T02:22:09.502Z,1003.28
2019-02-28T02:23:08.790Z,1003.22
2019-02-28T02:24:08.816Z,1003.23
2019-02-28T02:25:08.769Z,1003.16
2019-02-28T02:26:11.297Z,1003.13
2019-02-28T02:27:08.761Z,1003.09
2019-02-28T02:28:08.736Z,1003.11
2019-02-28T02:29:08.722Z,1003.05
2019-02-28T02:30:13.290Z,1003.02
2019-02-28T02:31:09.723Z,1003.04
2019-02-28T02:32:08.686Z,1002.99
2019-02-28T02:33:13.606Z,1003.04
2019-02-28T02:34:09.672Z,1003.05
2019-02-28T02:35:08.659Z,1002.98
2019-02-28T02:36:08.662Z,1002.96
2019-02-28T02:37:08.637Z,1002.92
2019-02-28T02:38:08.624Z,1002.93
2019-02-28T02:39:08.616Z,1002.93
2019-02-28T02:40:08.606Z,1002.89
2019-02-28T02:41:08.626Z,1002.90
2019-02-28T02:42:11.380Z,1002.93
2019-02-28T02:43:08.582Z,1002.85
2019-02-28T02:44:08.554Z,1002.86
2019-02-28T02:45:08.567Z,1002.87
2019-02-28T02:46:08.538Z,1002.89
2019-02-28T02:47:08.544Z,1002.81
2019-02-28T02:48:08.537Z,1002.83
2019-02-28T02:49:08.516Z,1002.83
2019-02-28T02:50:08.496Z,1002.83
2019-02-28T02:51:10.996Z,1002.78
2019-02-28T02:52:08.475Z,1002.80
2019-02-28T02:53:08.491Z,1002.81
2019-02-28T02:54:08.449Z,1002.78
2019-02-28T02:55:08.487Z,1002.77
2019-02-28T02:56:08.453Z,1002.76
2019-02-28T02:57:08.461Z,1002.77
2019-02-28T02:58:08.428Z,1002.74
2019-02-28T02:59:08.415Z,1002.76
2019-02-28T03:00:13.363Z,1002.72
2019-02-28T03:01:09.386Z,1002.68
2019-02-28T03:02:08.368Z,1002.70
2019-02-28T03:03:08.354Z,1002.68
2019-02-28T03:04:08.349Z,1002.68
2019-02-28T03:05:08.345Z,1002.61
2019-02-28T03:06:12.103Z,1002.65
2019-02-28T03:07:09.317Z,1002.64
2019-02-28T03:08:08.309Z,1002.60
2019-02-28T03:09:10.013Z,1002.59
2019-02-28T03:10:08.291Z,1002.62
2019-02-28T03:11:08.277Z,1002.62
2019-02-28T03:12:08.267Z,1002.57
2019-02-28T03:13:08.273Z,1002.62
2019-02-28T03:14:08.273Z,1002.59
2019-02-28T03:15:08.225Z,1002.59
2019-02-28T03:16:08.216Z,1002.59
2019-02-28T03:17:11.540Z,1002.62
2019-02-28T03:18:08.222Z,1002.60
2019-02-28T03:19:08.193Z,1002.59
2019-02-28T03:20:08.870Z,1002.60
2019-02-28T03:21:08.159Z,1002.59
2019-02-28T03:22:08.165Z,1002.56
2019-02-28T03:23:08.169Z,1002.59
2019-02-28T03:24:14.694Z,1002.57
2019-02-28T03:25:09.120Z,1002.57
2019-02-28T03:26:08.113Z,1002.60
2019-02-28T03:27:08.098Z,1002.60
2019-02-28T03:28:08.090Z,1002.65
2019-02-28T03:29:08.985Z,1002.68
2019-02-28T03:30:08.080Z,1002.69
2019-02-28T03:31:14.168Z,1002.68
2019-02-28T03:32:09.049Z,1002.67
2019-02-28T03:33:08.050Z,1002.69
2019-02-28T03:34:13.003Z,1002.72
2019-02-28T03:35:09.025Z,1002.71
2019-02-28T03:36:08.036Z,1002.71
2019-02-28T03:37:08.028Z,1002.73
2019-02-28T03:38:11.672Z,1002.73
2019-02-28T03:39:07.985Z,1002.71
2019-02-28T03:40:08.012Z,1002.69
2019-02-28T03:41:07.959Z,1002.67
2019-02-28T03:42:07.992Z,1002.68
2019-02-28T03:43:07.927Z,1002.70
2019-02-28T03:44:07.913Z,1002.71
2019-02-28T03:45:07.902Z,1002.70
2019-02-28T03:46:10.397Z,1002.70
2019-02-28T03:47:07.884Z,1002.77
2019-02-28T03:48:07.884Z,1002.71
2019-02-28T03:49:11.549Z,1002.75
2019-02-28T03:50:07.848Z,1002.71
2019-02-28T03:51:07.860Z,1002.69
2019-02-28T03:52:07.838Z,1002.67
2019-02-28T03:53:07.813Z,1002.73
2019-02-28T03:54:07.820Z,1002.72
2019-02-28T03:55:07.795Z,1002.74
2019-02-28T03:56:07.798Z,1002.72
2019-02-28T03:57:07.783Z,1002.80
2019-02-28T03:58:07.771Z,1002.76
2019-02-28T03:59:07.754Z,1002.74
2019-02-28T04:00:07.764Z,1002.77
2019-02-28T04:01:09.453Z,1002.70
2019-02-28T04:02:07.731Z,1002.71
2019-02-28T04:03:07.723Z,1002.72
2019-02-28T04:04:12.188Z,1002.72
2019-02-28T04:05:07.732Z,1002.69
2019-02-28T04:06:07.683Z,1002.71
2019-02-28T04:07:07.655Z,1002.70
2019-02-28T04:08:07.680Z,1002.66
2019-02-28T04:09:08.900Z,1002.64
2019-02-28T04:10:07.640Z,1002.68
2019-02-28T04:11:07.640Z,1002.63
2019-02-28T04:12:08.995Z,1002.65
2019-02-28T04:13:07.589Z,1002.66
2019-02-28T04:14:07.621Z,1002.68
2019-02-28T04:15:10.173Z,1002.66
2019-02-28T04:16:09.429Z,1002.65
2019-02-28T04:17:07.556Z,1002.62
2019-02-28T04:18:08.576Z,1002.66
2019-02-28T04:19:07.540Z,1002.64
2019-02-28T04:20:07.514Z,1002.60
2019-02-28T04:21:10.309Z,1002.58
2019-02-28T04:22:07.511Z,1002.60
2019-02-28T04:23:07.532Z,1002.65
2019-02-28T04:24:12.460Z,1002.68
2019-02-28T04:25:08.460Z,1002.64
2019-02-28T04:26:07.469Z,1002.61
2019-02-28T04:27:07.916Z,1002.58
2019-02-28T04:28:07.450Z,1002.57
2019-02-28T04:29:07.428Z,1002.60
2019-02-28T04:30:08.403Z,1002.54
2019-02-28T04:31:07.416Z,1002.59
2019-02-28T04:32:07.401Z,1002.60
2019-02-28T04:33:07.401Z,1002.57
2019-02-28T04:34:13.014Z,1002.59
2019-02-28T04:35:08.389Z,1002.60
2019-02-28T04:36:07.346Z,1002.57
2019-02-28T04:37:08.586Z,1002.57
2019-02-28T04:38:07.331Z,1002.55
2019-02-28T04:39:07.323Z,1002.53
2019-02-28T04:40:07.341Z,1002.55
2019-02-28T04:41:07.292Z,1002.55
2019-02-28T04:42:07.298Z,1002.58
2019-02-28T04:43:10.008Z,1002.53
2019-02-28T04:44:07.264Z,1002.52
2019-02-28T04:45:07.266Z,1002.52
2019-02-28T04:46:07.261Z,1002.54
2019-02-28T04:47:07.662Z,1002.48
2019-02-28T04:48:07.235Z,1002.56
2019-02-28T04:49:07.217Z,1002.55
2019-02-28T04:50:07.217Z,1002.53
2019-02-28T04:51:07.180Z,1002.50
2019-02-28T04:52:07.171Z,1002.54
2019-02-28T04:53:07.209Z,1002.50
2019-02-28T04:54:07.170Z,1002.48
2019-02-28T04:55:07.174Z,1002.47
2019-02-28T04:56:11.013Z,1002.45
2019-02-28T04:57:07.134Z,1002.46
2019-02-28T04:58:07.104Z,1002.46
2019-02-28T04:59:07.117Z,1002.42
2019-02-28T05:00:07.100Z,1002.38
2019-02-28T05:01:09.258Z,1002.37
2019-02-28T05:02:08.067Z,1002.40
2019-02-28T05:03:07.057Z,1002.38
2019-02-28T05:04:07.069Z,1002.39
2019-02-28T05:05:12.205Z,1002.41
2019-02-28T05:06:08.028Z,1002.43
2019-02-28T05:07:07.063Z,1002.42
2019-02-28T05:08:07.012Z,1002.44
2019-02-28T05:09:07.019Z,1002.41
2019-02-28T05:10:06.985Z,1002.39
2019-02-28T05:11:06.963Z,1002.48
2019-02-28T05:12:06.960Z,1002.46
2019-02-28T05:13:06.978Z,1002.50
2019-02-28T05:14:06.957Z,1002.47
2019-02-28T05:15:06.959Z,1002.51
2019-02-28T05:16:09.370Z,1002.51
2019-02-28T05:17:07.910Z,1002.51
2019-02-28T05:18:06.892Z,1002.49
2019-02-28T05:19:06.903Z,1002.51
2019-02-28T05:20:07.346Z,1002.51
2019-02-28T05:21:06.886Z,1002.52
2019-02-28T05:22:06.870Z,1002.53
2019-02-28T05:23:06.842Z,1002.52
2019-02-28T05:24:07.732Z,1002.51
2019-02-28T05:25:06.824Z,1002.52
2019-02-28T05:26:06.821Z,1002.51
2019-02-28T05:27:06.802Z,1002.46
2019-02-28T05:28:07.550Z,1002.48
2019-02-28T05:29:06.794Z,1002.49
2019-02-28T05:30:06.777Z,1002.47
2019-02-28T05:31:06.770Z,1002.48
2019-02-28T05:32:06.765Z,1002.45
2019-02-28T05:33:07.461Z,1002.44
2019-02-28T05:34:06.743Z,1002.42
2019-02-28T05:35:06.740Z,1002.39
2019-02-28T05:36:06.702Z,1002.43
2019-02-28T05:37:12.268Z,1002.47
2019-02-28T05:38:07.688Z,1002.40
2019-02-28T05:39:06.673Z,1002.41
2019-02-28T05:40:06.951Z,1002.41
2019-02-28T05:41:06.669Z,1002.41
2019-02-28T05:42:06.642Z,1002.43
2019-02-28T05:43:06.631Z,1002.44
2019-02-28T05:44:07.252Z,1002.42
2019-02-28T05:45:06.604Z,1002.46
2019-02-28T05:46:06.600Z,1002.45
2019-02-28T05:47:06.599Z,1002.43
2019-02-28T05:48:06.578Z,1002.41
2019-02-28T05:49:08.689Z,1002.42
2019-02-28T05:50:06.545Z,1002.45
2019-02-28T05:51:06.545Z,1002.43
2019-02-28T05:52:06.551Z,1002.45
2019-02-28T05:53:09.289Z,1002.42
2019-02-28T05:54:06.522Z,1002.40
2019-02-28T05:55:06.498Z,1002.40
2019-02-28T05:56:06.484Z,1002.47
2019-02-28T05:57:08.060Z,1002.44
2019-02-28T05:58:06.478Z,1002.45
2019-02-28T05:59:06.459Z,1002.44
2019-02-28T06:00:06.466Z,1002.47
2019-02-28T06:01:08.687Z,1002.48
2019-02-28T06:02:07.415Z,1002.47
2019-02-28T06:03:06.427Z,1002.48
2019-02-28T06:04:06.423Z,1002.47
2019-02-28T06:05:08.379Z,1002.51
2019-02-28T06:06:08.124Z,1002.48
2019-02-28T06:07:06.365Z,1002.45
2019-02-28T06:08:06.367Z,1002.50
2019-02-28T06:09:06.347Z,1002.51
2019-02-28T06:10:06.336Z,1002.49
2019-02-28T06:11:06.337Z,1002.50
2019-02-28T06:12:06.641Z,1002.47
2019-02-28T06:13:06.329Z,1002.49
2019-02-28T06:14:06.298Z,1002.51
2019-02-28T06:15:06.279Z,1002.53
2019-02-28T06:16:11.413Z,1002.44
2019-02-28T06:17:07.265Z,1002.41
2019-02-28T06:18:06.257Z,1002.39
2019-02-28T06:19:08.365Z,1002.42
2019-02-28T06:20:06.235Z,1002.42
2019-02-28T06:21:06.217Z,1002.39
2019-02-28T06:22:06.205Z,1002.37
2019-02-28T06:23:09.111Z,1002.33
2019-02-28T06:24:06.196Z,1002.32
2019-02-28T06:25:06.199Z,1002.28
2019-02-28T06:26:06.187Z,1002.33
2019-02-28T06:27:06.648Z,1002.30
2019-02-28T06:28:06.144Z,1002.31
2019-02-28T06:29:06.136Z,1002.32
2019-02-28T06:30:08.698Z,1002.37
2019-02-28T06:31:06.128Z,1002.35
2019-02-28T06:32:06.117Z,1002.26
2019-02-28T06:33:06.090Z,1002.31
2019-02-28T06:34:08.611Z,1002.33
2019-02-28T06:35:06.082Z,1002.24
2019-02-28T06:36:06.059Z,1002.35
2019-02-28T06:37:06.117Z,1002.34
2019-02-28T06:38:06.857Z,1002.31
2019-02-28T06:39:06.023Z,1002.38
2019-02-28T06:40:06.017Z,1002.35
2019-02-28T06:41:07.694Z,1002.27
2019-02-28T06:42:06.012Z,1002.32
2019-02-28T06:43:05.989Z,1002.31
2019-02-28T06:44:05.972Z,1002.33
2019-02-28T06:45:05.959Z,1002.34
2019-02-28T06:46:08.490Z,1002.21
2019-02-28T06:47:05.983Z,1002.24
2019-02-28T06:48:05.938Z,1002.21
2019-02-28T06:49:07.207Z,1002.20
2019-02-28T06:50:05.908Z,1002.21
2019-02-28T06:51:05.893Z,1002.23
2019-02-28T06:52:05.882Z,1002.21
2019-02-28T06:53:05.884Z,1002.22
2019-02-28T06:54:07.955Z,1002.25
2019-02-28T06:55:05.867Z,1002.27
2019-02-28T06:56:05.855Z,1002.28
2019-02-28T06:57:05.838Z,1002.31
2019-02-28T06:58:05.865Z,1002.32
2019-02-28T06:59:05.826Z,1002.35
2019-02-28T07:00:05.830Z,1002.38
2019-02-28T07:01:05.796Z,1002.28
2019-02-28T07:02:05.790Z,1002.33
2019-02-28T07:03:05.800Z,1002.37
2019-02-28T07:04:05.787Z,1002.38
2019-02-28T07:05:05.759Z,1002.34
2019-02-28T07:06:05.730Z,1002.27
2019-02-28T07:07:07.374Z,1002.29
2019-02-28T07:08:05.715Z,1002.23
2019-02-28T07:09:05.711Z,1002.30
2019-02-28T07:10:06.255Z,1002.28
2019-02-28T07:11:05.706Z,1002.34
2019-02-28T07:12:05.669Z,1002.31
2019-02-28T07:13:05.715Z,1002.37
2019-02-28T07:14:05.661Z,1002.37
2019-02-28T07:15:05.679Z,1002.30
2019-02-28T07:16:05.662Z,1002.32
2019-02-28T07:17:07.751Z,1002.30
2019-02-28T07:18:06.602Z,1002.29
2019-02-28T07:19:05.595Z,1002.27
2019-02-28T07:20:05.580Z,1002.31
2019-02-28T07:21:07.878Z,1002.30
2019-02-28T07:22:05.581Z,1002.35
2019-02-28T07:23:05.548Z,1002.35
2019-02-28T07:24:05.549Z,1002.33
2019-02-28T07:25:05.521Z,1002.34
2019-02-28T07:26:05.517Z,1002.37
2019-02-28T07:27:05.530Z,1002.29
2019-02-28T07:28:05.497Z,1002.30
2019-02-28T07:29:11.062Z,1002.31
2019-02-28T07:30:06.474Z,1002.31
2019-02-28T07:31:05.460Z,1002.37
2019-02-28T07:32:05.454Z,1002.29
2019-02-28T07:33:09.575Z,1002.25
2019-02-28T07:34:05.426Z,1002.29
2019-02-28T07:35:05.418Z,1002.26
2019-02-28T07:36:05.695Z,1002.23
2019-02-28T07:37:05.390Z,1002.24
2019-02-28T07:38:05.404Z,1002.22
2019-02-28T07:39:05.385Z,1002.28
2019-02-28T07:40:05.373Z,1002.30
2019-02-28T07:41:05.352Z,1002.28
2019-02-28T07:42:05.369Z,1002.28
2019-02-28T07:43:05.337Z,1002.29
2019-02-28T07:44:05.317Z,1002.26
2019-02-28T07:45:05.315Z,1002.27
2019-02-28T07:46:07.699Z,1002.18
2019-02-28T07:47:05.297Z,1002.19
2019-02-28T07:48:05.281Z,1002.19
2019-02-28T07:49:05.265Z,1002.15
2019-02-28T07:50:07.753Z,1002.13
2019-02-28T07:51:06.233Z,1002.14
2019-02-28T07:52:05.235Z,1002.16
2019-02-28T07:53:08.426Z,1002.26
2019-02-28T07:54:05.230Z,1002.21
2019-02-28T07:55:05.205Z,1002.21
2019-02-28T07:56:06.935Z,1002.26
2019-02-28T07:57:05.188Z,1002.30
2019-02-28T07:58:05.163Z,1002.27
2019-02-28T07:59:05.562Z,1002.28
2019-02-28T08:00:05.147Z,1002.28
2019-02-28T08:01:05.140Z,1002.29
2019-02-28T08:02:05.124Z,1002.38
2019-02-28T08:03:05.111Z,1002.49
2019-02-28T08:04:05.107Z,1002.46
2019-02-28T08:05:05.311Z,1002.46
2019-02-28T08:06:05.799Z,1002.49
2019-02-28T08:07:05.061Z,1002.47
2019-02-28T08:08:05.052Z,1002.49
2019-02-28T08:09:05.527Z,1002.44
2019-02-28T08:10:05.034Z,1002.43
2019-02-28T08:11:05.016Z,1002.38
2019-02-28T08:12:05.010Z,1002.35
2019-02-28T08:13:04.997Z,1002.34
2019-02-28T08:14:04.982Z,1002.33
2019-02-28T08:15:04.992Z,1002.36
2019-02-28T08:16:04.973Z,1002.39
2019-02-28T08:17:05.478Z,1002.28
2019-02-28T08:18:05.862Z,1002.31
2019-02-28T08:19:04.928Z,1002.25
2019-02-28T08:20:04.932Z,1002.29
2019-02-28T08:21:05.356Z,1002.25
2019-02-28T08:22:04.894Z,1002.27
2019-02-28T08:23:04.909Z,1002.30
2019-02-28T08:24:05.394Z,1002.32
2019-02-28T08:25:07.816Z,1002.39
2019-02-28T08:26:04.853Z,1002.41
2019-02-28T08:27:04.853Z,1002.41
2019-02-28T08:28:04.837Z,1002.39
2019-02-28T08:29:07.837Z,1002.39
2019-02-28T08:30:05.837Z,1002.36
2019-02-28T08:31:04.802Z,1002.33
2019-02-28T08:32:08.032Z,1002.32
2019-02-28T08:33:04.787Z,1002.27
2019-02-28T08:34:04.768Z,1002.27
2019-02-28T08:35:04.787Z,1002.24
2019-02-28T08:36:08.503Z,1002.23
2019-02-28T08:37:05.744Z,1002.16
2019-02-28T08:38:06.715Z,1002.20
2019-02-28T08:39:06.070Z,1002.20
2019-02-28T08:40:04.715Z,1002.28
2019-02-28T08:41:06.463Z,1002.32
2019-02-28T08:42:04.971Z,1002.38
2019-02-28T08:43:04.669Z,1002.34
2019-02-28T08:44:04.660Z,1002.30
2019-02-28T08:45:04.653Z,1002.31
2019-02-28T08:46:09.667Z,1002.23
2019-02-28T08:47:05.638Z,1002.08
2019-02-28T08:48:04.639Z,1002.05
2019-02-28T08:49:07.232Z,1001.96
2019-02-28T08:50:04.602Z,1001.96
2019-02-28T08:51:04.589Z,1001.91
2019-02-28T08:52:05.645Z,1001.90
2019-02-28T08:53:04.566Z,1001.89
2019-02-28T08:54:06.067Z,1001.91
2019-02-28T08:55:07.041Z,1001.91
2019-02-28T08:56:04.538Z,1001.86
2019-02-28T08:57:04.527Z,1001.85
2019-02-28T08:58:06.479Z,1001.80
2019-02-28T08:59:11.597Z,1001.81
2019-02-28T09:00:05.500Z,1001.83
2019-02-28T09:01:05.354Z,1001.84
2019-02-28T09:02:04.474Z,1001.96
2019-02-28T09:03:04.483Z,1002.02
2019-02-28T09:04:05.692Z,1002.07
2019-02-28T09:05:04.452Z,1002.09
2019-02-28T09:06:07.240Z,1002.12
2019-02-28T09:07:04.417Z,1002.04
2019-02-28T09:08:04.404Z,1002.05
2019-02-28T09:09:04.406Z,1002.02
2019-02-28T09:10:06.762Z,1001.94
2019-02-28T09:11:05.381Z,1001.92
2019-02-28T09:12:04.356Z,1001.93
2019-02-28T09:13:07.758Z,1001.94
2019-02-28T09:14:04.341Z,1001.93
2019-02-28T09:15:04.327Z,1001.93
2019-02-28T09:16:04.863Z,1002.02
2019-02-28T09:17:04.318Z,1001.97
2019-02-28T09:18:04.288Z,1002.01
2019-02-28T09:19:04.285Z,1001.97
2019-02-28T09:20:04.280Z,1002.05
2019-02-28T09:21:04.264Z,1002.00
2019-02-28T09:22:04.252Z,1002.03
2019-02-28T09:23:06.255Z,1002.06
2019-02-28T09:24:04.243Z,1001.98
2019-02-28T09:25:04.215Z,1001.95
2019-02-28T09:26:04.198Z,1001.92
2019-02-28T09:27:04.952Z,1001.91
2019-02-28T09:28:04.187Z,1001.89
2019-02-28T09:29:04.187Z,1001.86
2019-02-28T09:30:04.169Z,1001.82
2019-02-28T09:31:04.954Z,1001.91
2019-02-28T09:32:04.138Z,1001.87
2019-02-28T09:33:04.129Z,1001.86
2019-02-28T09:34:04.125Z,1001.72
2019-02-28T09:35:06.059Z,1001.75
2019-02-28T09:36:05.091Z,1001.72
2019-02-28T09:37:04.083Z,1001.64
2019-02-28T09:38:07.619Z,1001.71
2019-02-28T09:39:05.071Z,1001.67
2019-02-28T09:40:04.071Z,1001.66
2019-02-28T09:41:04.541Z,1001.57
2019-02-28T09:42:04.046Z,1001.56
2019-02-28T09:43:04.021Z,1001.51
2019-02-28T09:44:04.006Z,1001.51
2019-02-28T09:45:07.652Z,1001.47
2019-02-28T09:46:03.989Z,1001.50
2019-02-28T09:47:03.969Z,1001.60
2019-02-28T09:48:03.962Z,1001.56
2019-02-28T09:49:05.563Z,1001.58
2019-02-28T09:50:03.936Z,1001.60
2019-02-28T09:51:03.951Z,1001.62
2019-02-28T09:52:06.481Z,1001.60
2019-02-28T09:53:03.912Z,1001.59
2019-02-28T09:54:03.902Z,1001.63
2019-02-28T09:55:03.876Z,1001.64
2019-02-28T09:56:08.912Z,1001.71
2019-02-28T09:57:04.856Z,1001.63
2019-02-28T09:58:03.846Z,1001.63
2019-02-28T09:59:03.971Z,1001.67
2019-02-28T10:00:03.846Z,1001.71
2019-02-28T10:01:03.817Z,1001.67
2019-02-28T10:02:08.079Z,1001.63
2019-02-28T10:03:03.802Z,1001.65
2019-02-28T10:04:03.796Z,1001.61
2019-02-28T10:05:06.591Z,1001.61
2019-02-28T10:06:03.762Z,1001.60
2019-02-28T10:07:03.742Z,1001.53
2019-02-28T10:08:03.757Z,1001.55
2019-02-28T10:09:03.723Z,1001.54
2019-02-28T10:10:03.711Z,1001.53
2019-02-28T10:11:03.712Z,1001.63
2019-02-28T10:12:04.667Z,1001.55
2019-02-28T10:13:03.680Z,1001.54
2019-02-28T10:14:03.675Z,1001.50
2019-02-28T10:15:07.254Z,1001.57
2019-02-28T10:16:03.660Z,1001.51
2019-02-28T10:17:03.660Z,1001.52
2019-02-28T10:18:04.384Z,1001.51
2019-02-28T10:19:05.194Z,1001.48
2019-02-28T10:20:03.603Z,1001.48
2019-02-28T10:21:03.592Z,1001.50
2019-02-28T10:22:03.618Z,1001.53
2019-02-28T10:23:03.588Z,1001.59
2019-02-28T10:24:03.568Z,1001.56
2019-02-28T10:25:06.525Z,1001.55
2019-02-28T10:26:03.554Z,1001.60
2019-02-28T10:27:03.626Z,1001.59
2019-02-28T10:28:03.546Z,1001.59
2019-02-28T10:29:04.503Z,1001.65
2019-02-28T10:30:03.503Z,1001.64
2019-02-28T10:31:03.497Z,1001.62
2019-02-28T10:32:06.139Z,1001.54
2019-02-28T10:33:04.480Z,1001.50
2019-02-28T10:34:03.450Z,1001.52
2019-02-28T10:35:03.447Z,1001.49
2019-02-28T10:36:03.444Z,1001.50
2019-02-28T10:37:04.359Z,1001.53
2019-02-28T10:38:03.427Z,1001.48
2019-02-28T10:39:05.867Z,1001.40
2019-02-28T10:40:05.133Z,1001.46
2019-02-28T10:41:03.425Z,1001.48
2019-02-28T10:42:05.231Z,1001.40
2019-02-28T10:43:03.379Z,1001.43
2019-02-28T10:44:03.349Z,1001.41
2019-02-28T10:45:03.588Z,1001.43
2019-02-28T10:46:03.329Z,1001.45
2019-02-28T10:47:03.319Z,1001.36
2019-02-28T10:48:04.126Z,1001.43
2019-02-28T10:49:03.310Z,1001.43
2019-02-28T10:50:03.296Z,1001.43
2019-02-28T10:51:12.623Z,1001.38
2019-02-28T10:52:04.267Z,1001.41
2019-02-28T10:53:05.621Z,1001.44
2019-02-28T10:54:03.250Z,1001.46
2019-02-28T10:55:03.229Z,1001.44
2019-02-28T10:56:03.220Z,1001.42
2019-02-28T10:57:05.954Z,1001.43
2019-02-28T10:58:03.225Z,1001.42
2019-02-28T10:59:03.181Z,1001.39
2019-02-28T11:00:03.174Z,1001.45
2019-02-28T11:01:07.709Z,1001.41
2019-02-28T11:02:04.145Z,1001.45
2019-02-28T11:03:03.156Z,1001.44
2019-02-28T11:04:04.504Z,1001.42
2019-02-28T11:05:03.117Z,1001.40
2019-02-28T11:06:03.442Z,1001.51
2019-02-28T11:07:03.230Z,1001.50
2019-02-28T11:08:03.131Z,1001.45
2019-02-28T11:09:03.130Z,1001.48
2019-02-28T11:10:03.091Z,1001.52
2019-02-28T11:11:03.048Z,1001.50
2019-02-28T11:12:03.044Z,1001.46
2019-02-28T11:13:03.034Z,1001.45
2019-02-28T11:14:03.914Z,1001.44
2019-02-28T11:15:03.045Z,1001.45
2019-02-28T11:16:03.003Z,1001.48
2019-02-28T11:17:02.987Z,1001.45
2019-02-28T11:18:08.550Z,1001.49
2019-02-28T11:19:03.964Z,1001.46
2019-02-28T11:20:02.979Z,1001.39
2019-02-28T11:21:02.966Z,1001.34
2019-02-28T11:22:04.938Z,1001.34
2019-02-28T11:23:02.922Z,1001.34
2019-02-28T11:24:02.934Z,1001.32
2019-02-28T11:25:02.914Z,1001.29
2019-02-28T11:26:02.920Z,1001.26
2019-02-28T11:27:02.957Z,1001.25
2019-02-28T11:28:02.891Z,1001.31
2019-02-28T11:29:03.848Z,1001.34
2019-02-28T11:30:02.878Z,1001.36
2019-02-28T11:31:02.883Z,1001.34
2019-02-28T11:32:02.818Z,1001.30
2019-02-28T11:33:04.514Z,1001.33
2019-02-28T11:34:02.796Z,1001.30
2019-02-28T11:35:02.792Z,1001.27
2019-02-28T11:36:02.779Z,1001.28
2019-02-28T11:37:05.475Z,1001.32
2019-02-28T11:38:04.994Z,1001.24
2019-02-28T11:39:02.764Z,1001.23
2019-02-28T11:40:05.418Z,1001.23
2019-02-28T11:41:03.720Z,1001.17
2019-02-28T11:42:02.760Z,1001.13
2019-02-28T11:43:03.857Z,1001.10
2019-02-28T11:44:02.721Z,1001.15
2019-02-28T11:45:02.674Z,1001.17
2019-02-28T11:46:03.097Z,1001.13
2019-02-28T11:47:02.669Z,1001.06
2019-02-28T11:48:02.641Z,1001.12
2019-02-28T11:49:02.650Z,1001.14
2019-02-28T11:50:04.644Z,1001.14
2019-02-28T11:51:02.619Z,1001.17
2019-02-28T11:52:02.615Z,1001.20
2019-02-28T11:53:05.776Z,1001.17
2019-02-28T11:54:02.578Z,1001.07
2019-02-28T11:55:02.558Z,1001.10
2019-02-28T11:56:02.553Z,1001.03
2019-02-28T11:57:03.355Z,1001.08
2019-02-28T11:58:02.543Z,1000.99
2019-02-28T11:59:02.528Z,1001.03
2019-02-28T12:00:02.509Z,1001.00
2019-02-28T12:01:02.504Z,1000.96
2019-02-28T12:02:02.503Z,1000.97
2019-02-28T12:03:02.489Z,1000.98
2019-02-28T12:04:02.475Z,1000.96
2019-02-28T12:05:02.449Z,1000.97